Latest Weather Observations for Gove Airport

IDD60801

Issued at 10:01 am CST Monday 16 September 2019 (issued every 10 minutes, with the page automatically refreshed every 10 minutes)

About weather observations | Map of weather stations | Latest weather observations for NT | Other Formats
Station Details ID: 014508 Name: GOVE AIRPORT Lat: -12.27 Lon: 136.82 Height: 51.6 m
Data from the previous 72 hours. | See also: Recent months at Gove Airport
Date/Time
CST
Temp
°C
App
Temp
°C
Dew
Point
°C
Rel
Hum
%
Delta-T
°C
Wind Press
QNH
hPa
Press
MSL
hPa
Rain since
9am
mm
Dir  Spd
km/h
Gust
km/h
Spd
kts
Gust
kts
16/09:30am 25.8 25.3 19.2 67 4.2 SE 20 28 11 15 1017.8 1017.5 0.0
16/09:00am 25.3 23.5 18.7 67 4.2 SE 26 32 14 17 1017.7 1017.4 0.0
16/08:30am 24.3 23.7 18.9 72 3.4 SE 20 28 11 15 1017.5 1017.2 0.0
16/08:00am 24.0 23.8 18.6 72 3.4 SE 17 26 9 14 1017.3 1017.0 0.0
16/07:30am 23.3 23.0 18.2 73 3.2 SE 17 20 9 11 1017.1 1016.8 0.0
16/07:00am 22.3 22.7 18.1 77 2.6 SE 13 17 7 9 1016.8 1016.5 0.0
16/06:30am 21.3 21.7 17.3 78 2.5 SE 11 13 6 7 1016.5 1016.2 0.0
16/06:00am 21.2 22.0 17.4 79 2.3 SSE 9 9 5 5 1016.2 1015.9 0.0
16/05:30am 20.2 22.7 17.2 83 1.8 CALM 0 0 0 0 1015.9 1015.6 0.0
16/05:00am 19.9 21.0 16.5 81 2.1 S 6 7 3 4 1015.6 1015.3 0.0
16/04:30am 19.4 21.6 16.6 84 1.7 CALM 0 2 0 1 1015.5 1015.2 0.0
16/04:00am 19.4 20.3 16.2 82 1.9 S 6 9 3 5 1015.3 1015.0 0.0
16/03:30am 20.6 21.8 16.8 79 2.3 SSE 6 7 3 4 1015.2 1014.9 0.0
16/03:00am 19.7 20.8 16.5 82 1.9 SSE 6 7 3 4 1015.3 1015.0 0.0
16/02:30am 19.8 20.9 16.6 82 1.9 SSE 6 9 3 5 1015.2 1014.9 0.0
16/02:00am 19.2 21.4 16.4 84 1.7 CALM 0 0 0 0 1015.5 1015.2 0.0
16/01:30am 18.8 20.9 16.2 85 1.6 CALM 0 0 0 0 1015.6 1015.3 0.0
16/01:00am 19.1 21.1 16.1 83 1.8 CALM 0 0 0 0 1015.8 1015.5 0.0
16/12:30am 19.3 20.4 16.5 84 1.7 SSW 6 7 3 4 1016.1 1015.8 0.0
16/12:00am 20.5 21.5 16.9 80 2.2 SSE 7 9 4 5 1016.1 1015.8 0.0
 
Date/Time
CST
Temp
°C
App
Temp
°C
Dew
Point
°C
Rel
Hum
%
Delta-T
°C
Wind Press
QNH
hPa
Press
MSL
hPa
Rain since
9am
mm
Dir  Spd
km/h
Gust
km/h
Spd
kts
Gust
kts
15/11:30pm 20.7 21.8 17.1 80 2.2 SSE 7 9 4 5 1016.3 1016.0 0.0
15/11:00pm 20.7 21.7 16.9 79 2.3 SSE 7 11 4 6 1016.4 1016.1 0.0
15/10:30pm 20.6 21.6 16.8 79 2.3 SE 7 9 4 5 1016.7 1016.4 0.0
15/10:00pm 21.1 21.8 17.1 78 2.4 ESE 9 13 5 7 1016.6 1016.3 0.0
15/09:30pm 21.1 21.5 17.3 79 2.3 SE 11 13 6 7 1016.7 1016.4 0.0
15/09:00pm 21.6 22.5 17.6 78 2.5 SSE 9 11 5 6 1016.6 1016.3 0.0
15/08:30pm 22.2 23.2 17.8 76 2.7 SE 9 11 5 6 1016.6 1016.3 0.0
15/08:00pm 22.7 23.0 18.0 75 2.9 ESE 13 15 7 8 1016.3 1016.0 0.0
15/07:30pm 23.1 23.5 18.2 74 3.1 ESE 13 17 7 9 1016.1 1015.8 0.0
15/07:00pm 23.4 23.5 18.3 73 3.2 ESE 15 20 8 11 1015.8 1015.5 0.0
15/06:30pm 23.9 23.6 18.3 71 3.5 SE 17 24 9 13 1015.5 1015.2 0.0
15/06:00pm 24.5 23.5 18.0 67 4.1 SE 20 28 11 15 1015.2 1014.9 0.0
15/05:30pm 25.6 24.5 17.8 62 4.9 SE 20 30 11 16 1015.0 1014.7 0.0
15/05:00pm 26.0 23.7 17.6 60 5.3 SE 26 32 14 17 1014.7 1014.4 0.0
15/04:30pm 26.8 24.5 16.7 54 6.3 SE 24 32 13 17 1014.5 1014.2 0.0
15/04:00pm 27.1 25.3 17.0 54 6.3 SE 22 35 12 19 1014.4 1014.1 0.0
15/03:30pm 26.8 23.9 17.0 55 6.1 ESE 28 35 15 19 1014.4 1014.1 0.0
15/03:00pm 27.4 25.0 17.3 54 6.3 ESE 26 32 14 17 1014.4 1014.1 0.0
15/02:30pm 27.7 25.9 17.8 54 6.3 E 24 33 13 18 1014.7 1014.4 0.0
15/02:00pm 28.1 24.9 16.4 49 7.3 E 28 37 15 20 1014.9 1014.6 0.0
15/01:30pm 27.4 24.8 17.8 55 6.1 E 28 37 15 20 1015.0 1014.7 0.0
15/01:00pm 27.8 25.3 17.0 51 6.8 ESE 26 35 14 19 1015.4 1015.1 0.0
15/12:30pm 28.7 26.4 17.6 51 7.0 E 26 35 14 19 1015.9 1015.6 0.0
15/12:00pm 28.0 25.7 17.5 52 6.6 ESE 26 37 14 20 1016.3 1016.0 0.0
15/11:30am 28.2 25.6 16.8 50 7.1 E 26 37 14 20 1016.9 1016.6 0.0
15/11:00am 27.4 25.1 18.4 58 5.8 E 28 39 15 21 1017.2 1016.9 0.0
15/10:30am 27.5 24.2 17.1 53 6.5 E 30 46 16 25 1017.2 1016.9 0.0
15/10:00am 27.2 23.7 16.5 52 6.6 ESE 30 43 16 23 1017.5 1017.2 0.0
15/09:30am 26.8 24.3 18.9 62 5.1 ESE 30 43 16 23 1017.7 1017.4 0.0
15/09:00am 26.5 24.5 18.4 61 5.2 ESE 26 35 14 19 1017.7 1017.4 0.0
15/08:30am 26.1 24.9 18.5 63 4.8 ESE 22 32 12 17 1017.6 1017.3 0.0
15/08:00am 25.1 23.1 18.3 66 4.3 ESE 26 35 14 19 1017.5 1017.2 0.0
15/07:30am 23.9 24.3 19.0 74 3.1 ESE 15 17 8 9 1017.3 1017.0 0.0
15/07:00am 21.4 22.7 18.4 83 1.9 SE 9 13 5 7 1017.0 1016.7 0.0
15/06:30am 19.7 20.7 17.7 88 1.2 SSE 9 11 5 6 1016.5 1016.2 0.0
15/06:00am 19.4 20.5 17.0 86 1.5 SSE 7 9 4 5 1016.2 1015.9 0.0
15/05:30am 20.4 21.4 17.8 85 1.6 SSE 9 11 5 6 1015.9 1015.6 0.0
15/05:00am 20.6 21.5 17.6 83 1.8 SSE 9 9 5 5 1015.7 1015.4 0.0
15/04:30am 21.0 21.9 17.6 81 2.1 SSE 9 9 5 5 1015.6 1015.3 0.0
15/04:00am 20.3 21.5 17.3 83 1.8 SSE 7 9 4 5 1015.5 1015.2 0.0
15/03:30am 19.7 20.8 17.1 85 1.6 SE 7 9 4 5 1015.7 1015.4 0.0
15/03:00am 19.3 20.2 16.7 85 1.6 SSE 7 9 4 5 1015.8 1015.5 0.0
15/02:30am 19.5 20.5 16.9 85 1.6 SSE 7 9 4 5 1015.8 1015.5 0.0
15/02:00am 19.2 20.4 15.9 81 2.0 S 4 7 2 4 1015.7 1015.4 0.0
15/01:30am 20.1 21.0 16.7 81 2.1 S 7 9 4 5 1016.1 1015.8 0.0
15/01:00am 21.0 22.0 16.8 77 2.6 SSE 7 9 4 5 1016.4 1016.1 0.0
15/12:30am 20.7 21.6 16.7 78 2.4 SSE 7 9 4 5 1016.6 1016.3 0.0
15/12:00am 20.7 21.2 16.5 77 2.5 SSE 9 11 5 6 1016.8 1016.5 0.0
 
Date/Time
CST
Temp
°C
App
Temp
°C
Dew
Point
°C
Rel
Hum
%
Delta-T
°C
Wind Press
QNH
hPa
Press
MSL
hPa
Rain since
9am
mm
Dir  Spd
km/h
Gust
km/h
Spd
kts
Gust
kts
14/11:30pm 21.0 21.1 16.6 76 2.7 SSE 11 13 6 7 1016.8 1016.5 0.0
14/11:00pm 21.6 22.1 16.6 73 3.0 SSE 9 11 5 6 1017.1 1016.8 0.0
14/10:30pm 22.2 22.0 16.7 71 3.4 SE 13 17 7 9 1017.2 1016.9 0.0
14/10:00pm 22.5 22.3 16.8 70 3.5 SE 13 17 7 9 1017.2 1016.9 0.0
14/09:30pm 22.3 22.5 16.8 71 3.4 SSE 11 15 6 8 1017.2 1016.9 0.0
14/09:00pm 21.8 22.3 16.5 72 3.2 SE 9 13 5 7 1017.3 1017.0 0.0
14/08:30pm 21.9 22.0 16.4 71 3.3 SE 11 15 6 8 1017.1 1016.8 0.0
14/08:00pm 22.2 21.8 16.2 69 3.6 SSE 13 17 7 9 1016.7 1016.4 0.0
14/07:30pm 22.4 22.0 16.2 68 3.8 SSE 13 15 7 8 1016.5 1016.2 0.0
14/07:00pm 22.8 22.4 16.1 66 4.1 SSE 13 19 7 10 1016.3 1016.0 0.0
14/06:30pm 23.4 21.9 16.2 64 4.4 SE 19 26 10 14 1015.9 1015.6 0.0
14/06:00pm 24.2 22.6 16.5 62 4.7 SE 20 28 11 15 1015.6 1015.3 0.0
14/05:30pm 24.9 22.0 16.1 58 5.4 SSE 26 33 14 18 1015.3 1015.0 0.0
14/05:00pm 25.5 22.0 15.5 54 6.1 SE 28 35 15 19 1015.1 1014.8 0.0
14/04:30pm 26.4 22.5 14.5 48 7.1 SE 28 41 15 22 1014.9 1014.6 0.0
14/04:00pm 27.5 24.0 15.5 48 7.3 SE 28 39 15 21 1014.9 1014.6 0.0
14/03:30pm 27.0 21.9 13.7 44 7.9 SE 33 44 18 24 1014.9 1014.6 0.0
14/03:00pm 27.8 22.9 14.4 43 8.1 SE 33 43 18 23 1015.0 1014.7 0.0
14/02:30pm 28.1 24.2 15.4 46 7.8 ESE 30 39 16 21 1015.2 1014.9 0.0
14/02:00pm 28.5 24.7 14.7 43 8.4 ESE 28 43 15 23 1015.6 1015.3 0.0
14/01:30pm 29.0 25.3 15.9 45 8.1 E 30 43 16 23 1015.9 1015.6 0.0
14/01:00pm 28.6 24.5 14.8 43 8.4 ESE 30 41 16 22 1016.3 1016.0 0.0
14/12:30pm 27.9 25.2 15.5 46 7.6 ESE 24 37 13 20 1016.8 1016.5 0.0
14/12:00pm 27.8 24.4 16.7 50 6.9 E 30 39 16 21 1017.2 1016.9 0.0
14/11:30am 27.5 24.1 17.7 55 6.2 ESE 32 43 17 23 1017.7 1017.4 0.0
14/11:15am 27.8 25.2 17.9 54 6.3 ESE 28 46 15 25 1017.8 1017.5 0.0
14/11:00am 27.3 24.9 18.3 58 5.7 ESE 28 41 15 22 1017.9 1017.6 0.0
14/10:30am 26.9 24.2 19.3 63 4.9 ESE 32 46 17 25 1018.1 1017.8 0.0
14/10:00am 26.9 24.7 19.5 64 4.8 ESE 30 46 16 25 1018.3 1018.0 0.0
14/09:30am 26.6 24.2 19.2 64 4.8 ESE 30 43 16 23 1018.3 1018.0 0.0
14/09:00am 26.4 23.5 18.8 63 4.9 ESE 32 46 17 25 1018.0 1017.7 0.0
14/08:30am 26.3 24.9 18.9 63 4.7 ESE 24 35 13 19 1018.0 1017.7 0.0
14/08:00am 24.9 24.2 18.6 68 4.0 ESE 20 28 11 15 1018.0 1017.7 0.0
14/07:30am 21.7 22.8 18.9 84 1.8 SE 11 15 6 8 1017.8 1017.5 0.0
14/07:00am 19.8 20.9 17.9 89 1.2 SE 9 11 5 6 1017.5 1017.2 0.0
14/06:30am 18.9 19.3 17.2 90 1.0 SE 11 13 6 7 1017.1 1016.8 0.0
14/06:00am 18.6 19.2 16.8 89 1.1 SE 9 11 5 6 1016.7 1016.4 0.0
14/05:30am 18.9 19.0 16.5 86 1.4 SSE 11 13 6 7 1016.3 1016.0 0.0
14/05:00am 19.0 19.5 16.6 86 1.4 SSE 9 11 5 6 1016.2 1015.9 0.0
14/04:30am 18.5 18.8 16.1 86 1.4 SSE 9 11 5 6 1016.2 1015.9 0.0
14/04:00am 19.1 19.3 16.7 86 1.4 SSE 11 13 6 7 1016.1 1015.8 0.0
14/03:30am 19.3 19.6 17.1 87 1.3 SSE 11 13 6 7 1016.1 1015.8 0.0
14/03:00am 19.5 20.1 17.6 89 1.2 SSE 11 15 6 8 1016.1 1015.8 0.0
14/02:30am 19.1 20.0 17.6 91 0.9 SSE 9 11 5 6 1016.3 1016.0 0.0
14/02:00am 19.5 21.1 18.2 92 0.8 SSE 7 9 4 5 1016.5 1016.2 0.0
14/01:30am 19.0 20.3 17.5 91 0.9 S 7 9 4 5 1016.7 1016.4 0.0
14/01:00am 19.4 20.6 17.4 88 1.2 SSW 7 9 4 5 1017.0 1016.7 0.0
14/12:30am 20.1 21.2 17.9 87 1.4 SSW 9 11 5 6 1017.2 1016.9 0.0
14/12:00am 21.0 22.1 18.0 83 1.9 S 9 11 5 6 1017.7 1017.4 0.0
 
Date/Time
CST
Temp
°C
App
Temp
°C
Dew
Point
°C
Rel
Hum
%
Delta-T
°C
Wind Press
QNH
hPa
Press
MSL
hPa
Rain since
9am
mm
Dir  Spd
km/h
Gust
km/h
Spd
kts
Gust
kts
13/11:30pm 21.7 22.2 18.3 81 2.1 SSE 13 19 7 10 1018.0 1017.7 0.0
13/11:00pm 22.2 22.4 18.6 80 2.3 SE 15 19 8 10 1018.2 1017.9 0.0
13/10:30pm 22.4 22.2 18.6 79 2.4 SE 17 22 9 12 1018.2 1017.9 0.0
13/10:00pm 22.4 22.7 18.8 80 2.3 SE 15 20 8 11 1018.4 1018.1 0.0
13/09:30pm 22.4 22.3 18.8 80 2.3 SE 17 22 9 12 1018.4 1018.1 0.0
13/09:00pm 22.4 23.2 19.0 81 2.2 SE 13 19 7 10 1018.2 1017.9 0.0
13/08:30pm 22.6 22.8 18.6 78 2.5 SE 15 20 8 11 1017.8 1017.5 0.0
13/08:00pm 22.8 23.1 18.8 78 2.5 SE 15 20 8 11 1017.6 1017.3 0.0
13/07:30pm 23.0 22.8 18.5 76 2.8 SSE 17 22 9 12 1017.4 1017.1 0.0
13/07:00pm 23.2 23.3 18.3 74 3.1 SE 15 19 8 10 1017.2 1016.9 0.0
13/06:30pm 23.7 23.1 18.4 72 3.3 SE 19 24 10 13 1016.8 1016.5 0.0
13/06:00pm 24.4 23.3 18.6 70 3.7 SSE 22 32 12 17 1016.5 1016.2 0.0
13/05:30pm 25.1 23.5 18.3 66 4.3 SE 24 32 13 17 1016.2 1015.9 0.0
13/05:00pm 25.9 23.6 17.5 59 5.3 SE 26 32 14 17 1015.9 1015.6 0.0
13/04:30pm 26.7 23.9 17.2 56 5.9 SE 28 37 15 20 1015.6 1015.3 0.0
13/04:00pm 26.9 24.3 17.7 57 5.8 SE 28 37 15 20 1015.5 1015.2 0.0
13/03:30pm 27.1 23.9 17.3 55 6.1 SE 30 39 16 21 1015.4 1015.1 0.0
13/03:00pm 26.5 23.6 17.0 56 5.9 SE 28 43 15 23 1015.5 1015.2 0.0
13/02:30pm 27.5 24.6 17.1 53 6.5 ESE 28 35 15 19 1015.8 1015.5 0.0
13/02:00pm 27.3 25.1 17.8 56 6.0 ESE 26 37 14 20 1016.0 1015.7 0.0
13/01:30pm 27.2 24.6 17.7 56 6.0 ESE 28 39 15 21 1016.4 1016.1 0.0
13/01:00pm 24.8 24.4 19.4 72 3.5 SE 20 32 11 17 1017.0 1016.7 0.0
13/12:30pm 27.0 25.1 18.6 60 5.4 ESE 26 35 14 19 1017.2 1016.9 0.0
13/12:00pm 26.9 24.3 17.9 57 5.7 ESE 28 35 15 19 1017.6 1017.3 0.0
13/11:30am 26.1 23.8 18.5 63 4.8 ESE 28 39 15 21 1018.1 1017.8 0.0
13/11:00am 27.0 25.1 18.6 60 5.4 SE 26 37 14 20 1018.5 1018.2 0.0
13/10:30am 26.7 23.7 17.8 58 5.6 ESE 30 39 16 21 1018.9 1018.6 0.0

Other formats

Comma delimited format used in spreadsheet applications
http://www.bom.gov.au/fwo/IDD60801/IDD60801.94150.axf

JavaScript Object Notation format (JSON) in row-major order
http://www.bom.gov.au/fwo/IDD60801/IDD60801.94150.json

Data quality

Most of these data are generated automatically and are frequently updated. Quality checks on data are not normally performed. It is possible for incorrect values to appear. Refer to information at About Latest Weather Observations and please check the disclaimer before using these data.